KLLQ

Monticello Municipal / Ellis Field Airport

Monticello, Arkansas, USA
METAR KLLQ 141253Z AUTO 19003KT 10SM CLR 24/23 A3004 RMK AO2 SLP168 T02440228
Observed Flight Rules
Aug-14 @ 12:53 UTC (50 minutes ago) Visual Flight Rules
Wind Visibility Clouds
190° at 3 knots 10 miles
  • Clear skies
Temperatures Readings
Current 24°C / 75°F
Dewpoint 23°C / 73°F
Humidity 94%
Altimeter 30.04" Hg
Pressure 1016.8 hPa
Elevation 83
METAR KLLQ 141253Z AUTO 19003KT 10SM CLR 24/23 A3004 RMK AO2 SLP168 T02440228
Observed Flight Rules
Aug-14 @ 12:53 UTC
(50 minutes ago)
VFR
Wind Visibility
190° at 3 knots 10 miles
Clouds
  • Clear skies
Temperature Dewpoint
24°C / 75°F 23°C / 73°F
Humidity Altimeter Pressure
94% 30.04" Hg 1016.8 hPa